Авиационная погода в Астане

СКИДКИ НА СМАРТФОНЫ!

Регион: 
Погода METAR: 
UACC 190300Z 01003MPS 330V040 9999 SCT046 12/04 Q1023 NOSIG RMK QFE735/0981
Время наблюдения
2022-08-19T03:00:00Z
Температура C
12.0
Точка росы
4.0
Направление ветра
10
Скорость ветра (узлы)
6
Метео видимость
6.21
Облачность
SCT
Нижняя граница облачности (футы)
4600
Явления погоды
Условия полета
VFR
Аэропорт подробнее: 
SCT – разбросанная отдельная облачность;

Скидки на навигаторы!